createdAt,value
2022-10-19T03:41:55.743Z,13.35
2022-10-19T03:44:58.675Z,13.35
2022-10-19T03:48:00.971Z,13.01
2022-10-19T03:51:08.611Z,13.02
2022-10-19T03:54:15.965Z,13.06
2022-10-19T03:57:18.578Z,13.16
2022-10-19T04:00:21.210Z,13.14
2022-10-19T04:03:23.868Z,13.06
2022-10-19T04:06:29.399Z,12.97
2022-10-19T04:09:32.176Z,13.00
2022-10-19T04:12:34.511Z,13.02
2022-10-19T04:15:37.037Z,13.05
2022-10-19T04:18:39.431Z,13.05
2022-10-19T04:21:44.135Z,13.13
2022-10-19T04:24:46.464Z,13.26
2022-10-19T04:27:48.987Z,13.25
2022-10-19T04:30:51.381Z,13.25
2022-10-19T04:33:54.493Z,13.33
2022-10-19T04:36:59.381Z,13.38
2022-10-19T04:40:02.308Z,13.48
2022-10-19T04:43:05.434Z,13.64
2022-10-19T04:46:10.345Z,13.70
2022-10-19T04:49:15.208Z,13.68
2022-10-19T04:52:20.505Z,13.72
2022-10-19T04:55:22.852Z,13.60
2022-10-19T04:58:25.591Z,13.46
2022-10-19T05:01:30.777Z,13.45
2022-10-19T05:04:33.352Z,13.41
2022-10-19T05:07:35.870Z,13.31
2022-10-19T05:10:38.881Z,13.18
2022-10-19T05:13:43.197Z,13.14
2022-10-19T05:16:45.726Z,13.02
2022-10-19T05:19:47.953Z,12.99
2022-10-19T05:22:50.978Z,12.92
2022-10-19T05:26:11.383Z,13.06
2022-10-19T05:29:14.658Z,13.21
2022-10-19T05:32:16.906Z,13.36
2022-10-19T05:35:22.332Z,13.51
2022-10-19T05:38:25.209Z,13.57
2022-10-19T05:41:28.315Z,13.54
2022-10-19T05:44:30.722Z,13.58
2022-10-19T05:47:34.472Z,13.61
2022-10-19T05:50:36.964Z,13.69
2022-10-19T05:53:40.334Z,13.72
2022-10-19T05:56:43.365Z,13.84
2022-10-19T05:59:46.011Z,13.91
2022-10-19T06:02:48.229Z,13.98
2022-10-19T06:05:51.738Z,14.09
2022-10-19T06:08:56.301Z,14.15
2022-10-19T06:11:58.802Z,14.20
2022-10-19T06:15:01.060Z,14.22
2022-10-19T06:18:04.579Z,14.22
2022-10-19T06:21:10.528Z,14.31
2022-10-19T06:24:13.374Z,14.34
2022-10-19T06:27:15.687Z,14.36
2022-10-19T06:30:19.080Z,14.43
2022-10-19T06:33:21.288Z,14.49
2022-10-19T06:36:26.958Z,14.58
2022-10-19T06:39:29.238Z,14.62
2022-10-19T06:42:31.891Z,14.64
2022-10-19T06:45:37.051Z,14.66
2022-10-19T06:48:39.593Z,14.75
2022-10-19T06:51:42.211Z,14.79
2022-10-19T06:54:44.981Z,14.87
2022-10-19T06:57:47.323Z,15.00
2022-10-19T07:00:58.672Z,15.03
2022-10-19T07:04:01.234Z,15.12
2022-10-19T07:07:03.980Z,15.18
2022-10-19T07:10:08.625Z,15.25
2022-10-19T07:13:11.440Z,15.37
2022-10-19T07:16:19.663Z,15.51
2022-10-19T07:19:26.658Z,15.66
2022-10-19T07:22:29.006Z,15.77
2022-10-19T07:25:32.224Z,15.91
2022-10-19T07:28:35.395Z,16.04
2022-10-19T07:31:37.922Z,16.09
2022-10-19T07:34:40.168Z,16.16
2022-10-19T07:37:42.739Z,16.26
2022-10-19T07:40:48.365Z,16.26
2022-10-19T07:43:51.918Z,16.31
2022-10-19T07:46:54.161Z,16.36
2022-10-19T07:49:56.681Z,16.43
2022-10-19T07:52:58.954Z,16.48
2022-10-19T07:56:06.437Z,16.61
2022-10-19T07:59:09.977Z,16.77
2022-10-19T08:02:17.140Z,16.81
2022-10-19T08:05:19.808Z,16.94
2022-10-19T08:08:22.185Z,16.88
2022-10-19T08:11:28.678Z,16.84
2022-10-19T08:14:31.655Z,16.89
2022-10-19T08:17:37.655Z,16.92
2022-10-19T08:20:45.362Z,17.01
2022-10-19T08:23:47.889Z,17.06
2022-10-19T08:26:51.410Z,17.16
2022-10-19T08:29:54.037Z,17.63
2022-10-19T08:32:56.271Z,17.68
2022-10-19T08:35:58.761Z,17.52
2022-10-19T08:39:02.647Z,17.69
2022-10-19T08:42:14.285Z,18.10
2022-10-19T08:45:22.213Z,20.15
2022-10-19T08:48:32.929Z,24.55
2022-10-19T08:51:39.888Z,23.46
2022-10-19T08:57:57.896Z,20.11
2022-10-19T09:01:06.335Z,18.96
2022-10-19T09:04:24.433Z,18.52
2022-10-19T09:07:31.083Z,18.42
2022-10-19T09:10:38.949Z,18.19
2022-10-19T09:14:04.329Z,18.12
2022-10-19T09:17:14.594Z,18.08
2022-10-19T09:20:29.398Z,18.12
2022-10-19T09:23:50.263Z,18.31
2022-10-19T09:26:56.337Z,18.30
2022-10-19T09:30:03.728Z,18.28
2022-10-19T09:33:16.377Z,18.30
2022-10-19T09:36:22.928Z,18.56
2022-10-19T09:39:31.167Z,18.57
2022-10-19T09:42:34.722Z,18.64
2022-10-19T09:45:44.978Z,18.88
2022-10-19T09:48:52.778Z,19.05
2022-10-19T09:51:55.954Z,19.17
2022-10-19T09:55:03.558Z,19.12
2022-10-19T09:58:17.679Z,19.18
2022-10-19T10:01:41.704Z,19.21
2022-10-19T10:04:56.739Z,19.15
2022-10-19T10:07:59.316Z,19.03
2022-10-19T10:11:10.517Z,19.25
2022-10-19T10:14:40.369Z,19.54
2022-10-19T10:17:46.297Z,19.66
2022-10-19T10:24:11.729Z,19.32
2022-10-19T10:27:45.239Z,19.20
2022-10-19T10:30:53.395Z,19.39
2022-10-19T10:34:10.789Z,19.52
2022-10-19T10:37:35.496Z,19.66
2022-10-19T10:40:39.253Z,19.71
2022-10-19T10:44:04.911Z,19.66
2022-10-19T10:47:14.931Z,19.75
2022-10-19T10:50:23.387Z,19.94
2022-10-19T10:53:34.883Z,19.91
2022-10-19T10:56:40.724Z,19.91
2022-10-19T11:00:15.823Z,19.85
2022-10-19T11:03:33.653Z,19.79
2022-10-19T11:06:44.743Z,19.84
2022-10-19T11:09:58.279Z,19.89
2022-10-19T11:13:12.741Z,19.89
2022-10-19T11:16:18.440Z,20.05
2022-10-19T11:19:34.030Z,20.12
2022-10-19T11:22:46.889Z,19.95
2022-10-19T11:26:10.618Z,19.76
2022-10-19T11:29:31.958Z,19.74
2022-10-19T11:32:52.691Z,19.58
2022-10-19T11:36:10.701Z,19.37
2022-10-19T11:39:47.317Z,19.43
2022-10-19T11:43:00.661Z,19.33
2022-10-19T11:46:07.285Z,19.38
2022-10-19T11:49:35.022Z,19.36
2022-10-19T11:52:51.416Z,19.32
2022-10-19T11:56:25.158Z,19.39
2022-10-19T12:00:15.388Z,19.40
2022-10-19T12:03:29.057Z,19.24
2022-10-19T12:06:48.775Z,19.29
2022-10-19T12:10:11.257Z,19.37
2022-10-19T12:13:40.642Z,19.42
2022-10-19T12:16:49.680Z,19.42
2022-10-19T12:19:56.563Z,19.39
2022-10-19T12:22:59.809Z,19.34
2022-10-19T12:26:05.938Z,19.26
2022-10-19T12:29:34.298Z,19.29
2022-10-19T12:32:44.723Z,19.32
2022-10-19T12:36:29.289Z,19.33
2022-10-19T12:39:39.103Z,19.41
2022-10-19T12:42:59.482Z,19.50
2022-10-19T12:46:22.232Z,19.36
2022-10-19T12:49:30.829Z,19.29
2022-10-19T12:52:38.360Z,19.26
2022-10-19T12:55:43.545Z,19.33
2022-10-19T12:59:01.296Z,19.31
2022-10-19T13:02:24.349Z,19.31
2022-10-19T13:05:30.373Z,19.22
2022-10-19T13:08:42.473Z,19.31
2022-10-19T13:12:21.393Z,19.36
2022-10-19T13:15:35.367Z,19.28
2022-10-19T13:18:59.549Z,19.20
2022-10-19T13:22:02.131Z,19.19
2022-10-19T13:25:19.469Z,19.21
2022-10-19T13:28:27.812Z,19.18
2022-10-19T13:31:32.967Z,19.19
2022-10-19T13:34:36.203Z,19.22
2022-10-19T13:37:38.553Z,19.25
2022-10-19T13:40:51.104Z,19.26
2022-10-19T13:44:08.610Z,19.18
2022-10-19T13:47:33.496Z,19.06
2022-10-19T13:51:11.495Z,19.03
2022-10-19T13:54:14.093Z,18.92
2022-10-19T13:57:37.758Z,18.92
2022-10-19T14:01:06.246Z,18.83
2022-10-19T14:04:24.003Z,18.82
2022-10-19T14:07:33.437Z,18.88
2022-10-19T14:10:49.447Z,18.78
2022-10-19T14:14:09.417Z,18.70
2022-10-19T14:20:29.438Z,18.54
2022-10-19T14:23:39.988Z,18.49
2022-10-19T14:26:43.326Z,18.29
2022-10-19T14:29:49.820Z,18.25
2022-10-19T14:32:56.766Z,18.28
2022-10-19T14:36:02.585Z,18.18
2022-10-19T14:39:05.710Z,18.13
2022-10-19T14:42:10.796Z,18.07
2022-10-19T14:45:18.026Z,18.06
2022-10-19T14:48:20.765Z,17.95
2022-10-19T14:51:42.241Z,17.86
2022-10-19T14:54:47.995Z,17.82
2022-10-19T14:57:52.871Z,17.72
2022-10-19T15:00:57.543Z,17.63
2022-10-19T15:03:59.886Z,17.54
2022-10-19T15:07:13.433Z,17.49
2022-10-19T15:10:39.501Z,17.34
2022-10-19T15:13:42.894Z,17.23
2022-10-19T15:17:00.653Z,17.14
2022-10-19T15:20:23.802Z,17.07
2022-10-19T15:23:40.822Z,16.86
2022-10-19T15:27:01.729Z,16.82
2022-10-19T15:30:31.631Z,16.73
2022-10-19T15:33:39.632Z,16.68
2022-10-19T15:36:55.532Z,16.52
2022-10-19T15:39:58.258Z,16.41
2022-10-19T15:43:01.061Z,16.32
2022-10-19T15:46:19.846Z,16.27
2022-10-19T15:49:40.519Z,16.24
2022-10-19T15:52:43.180Z,16.12
2022-10-19T15:55:45.658Z,16.04
2022-10-19T15:58:53.369Z,15.98
2022-10-19T16:01:56.388Z,15.91
2022-10-19T16:04:59.539Z,15.81
2022-10-19T16:08:02.235Z,15.78
